Time;durP1;ratioP1;P1;durP2;ratioP2;P2;SDS_P1;SDS_P2;PMS_P1;PMS_P2;Temp;Humidity;BMP_temperature;BMP_pressure;BME280_temperature;BME280_humidity;BME280_pressure;Samples;Min_cycle;Max_cycle;Signal;HPM_P1;HPM_P2
2022/05/28 00:01:36;;;;;;;4.75;0.70;;;11.00;99.90;;;;;;5085761;28;20714;-85
2022/05/28 00:04:05;;;;;;;8.40;0.98;;;11.70;99.90;;;;;;5068694;28;20489;-85
2022/05/28 00:06:32;;;;;;;9.50;1.15;;;10.90;99.90;;;;;;5068703;28;20501;-85
2022/05/28 00:09:02;;;;;;;7.85;1.08;;;11.90;99.90;;;;;;5086628;28;20062;-84
2022/05/28 00:11:35;;;;;;;5.97;1.00;;;10.80;99.90;;;;;;5068001;28;20051;-86
2022/05/28 00:14:02;;;;;;;6.80;0.98;;;11.00;99.90;;;;;;5087473;28;20044;-84
2022/05/28 00:16:28;;;;;;;8.98;1.00;;;10.70;99.90;;;;;;5068704;28;20429;-85
2022/05/28 00:18:54;;;;;;;5.80;1.10;;;11.80;99.90;;;;;;5087045;28;20048;-85
2022/05/28 00:21:21;;;;;;;7.95;1.20;;;11.70;99.90;;;;;;5068815;28;20059;-86
2022/05/28 00:23:47;;;;;;;12.07;1.13;;;12.00;99.90;;;;;;5085357;28;20366;-85
2022/05/28 00:26:14;;;;;;;7.65;0.85;;;11.70;99.90;;;;;;5086031;28;20081;-84
2022/05/28 00:28:40;;;;;;;8.43;1.27;;;11.30;99.90;;;;;;5086207;28;20412;-85
2022/05/28 00:31:06;;;;;;;6.05;0.80;;;11.60;99.90;;;;;;5069084;28;20052;-85
2022/05/28 00:33:32;;;;;;;10.52;1.20;;;11.10;99.90;;;;;;5084834;28;20036;-85
2022/05/28 00:35:59;;;;;;;4.40;0.80;;;11.60;99.90;;;;;;5068817;28;20044;-86
2022/05/28 00:38:25;;;;;;;8.50;1.15;;;10.40;99.90;;;;;;5085215;28;20449;-87
2022/05/28 00:40:53;;;;;;;7.18;1.30;;;10.40;99.90;;;;;;5067865;28;20051;-85
2022/05/28 00:43:20;;;;;;;8.15;1.10;;;10.40;99.90;;;;;;5068488;28;20489;-85
2022/05/28 00:45:49;;;;;;;8.50;0.95;;;11.60;99.90;;;;;;5085710;28;20051;-84
2022/05/28 00:48:20;;;;;;;9.80;1.27;;;10.90;99.90;;;;;;5086077;28;20135;-85
2022/05/28 00:50:46;;;;;;;4.57;0.60;;;10.60;99.90;;;;;;5059070;28;20067;-86
2022/05/28 00:53:13;;;;;;;9.73;1.33;;;10.90;99.90;;;;;;5095565;28;20055;-85
2022/05/28 00:55:39;;;;;;;7.15;1.08;;;11.10;99.90;;;;;;5082480;28;20040;-85
2022/05/28 00:58:08;;;;;;;5.82;1.00;;;10.50;99.90;;;;;;5094509;28;20424;-85
2022/05/28 01:00:34;;;;;;;5.88;0.95;;;10.20;99.90;;;;;;5085813;28;20080;-85
2022/05/28 01:03:12;;;;;;;6.65;1.30;;;11.20;99.90;;;;;;5084293;28;20044;-86
2022/05/28 01:05:40;;;;;;;8.07;1.45;;;11.50;99.90;;;;;;5084538;28;20048;-85
2022/05/28 01:08:43;;;;;;;10.27;1.23;;;10.80;99.90;;;;;;5084477;28;20129;-85
2022/05/28 01:11:30;;;;;;;8.20;1.08;;;10.10;99.90;;;;;;5084263;28;20220;-85
2022/05/28 01:14:20;;;;;;;4.35;0.98;;;9.80;99.90;;;;;;5068350;28;20468;-85
2022/05/28 01:16:53;;;;;;;6.70;1.08;;;10.10;99.90;;;;;;5086218;28;20083;-85
2022/05/28 01:19:43;;;;;;;7.75;0.82;;;11.10;99.90;;;;;;5067375;28;20489;-86
2022/05/28 01:22:51;;;;;;;8.73;0.95;;;11.30;99.90;;;;;;5086639;28;20389;-86
2022/05/28 01:25:39;;;;;;;9.07;1.25;;;10.10;99.90;;;;;;5071919;28;20052;-85
2022/05/28 01:28:10;;;;;;;5.43;0.73;;;10.10;99.90;;;;;;5083991;28;20107;-86
2022/05/28 01:30:39;;;;;;;4.38;0.85;;;10.20;99.90;;;;;;5084879;28;20046;-85
2022/05/28 01:33:07;;;;;;;9.05;1.00;;;10.10;99.90;;;;;;5066744;28;20039;-86
2022/05/28 01:35:35;;;;;;;11.55;1.40;;;10.10;99.90;;;;;;5085638;28;20052;-85
2022/05/28 01:38:02;;;;;;;8.52;1.25;;;11.50;99.90;;;;;;5067532;28;20511;-86
2022/05/28 01:40:29;;;;;;;8.82;1.20;;;10.60;99.90;;;;;;5084472;28;20093;-85
2022/05/28 01:42:57;;;;;;;15.70;1.52;;;11.20;99.90;;;;;;5067435;28;20048;-84
2022/05/28 01:45:28;;;;;;;15.00;1.75;;;11.50;99.90;;;;;;5083380;28;20047;-85
2022/05/28 01:47:57;;;;;;;8.85;1.08;;;10.20;99.90;;;;;;5084451;28;20090;-84
2022/05/28 01:50:25;;;;;;;6.85;1.70;;;11.40;99.90;;;;;;5084782;28;20093;-85
2022/05/28 01:52:52;;;;;;;7.32;0.93;;;10.20;99.90;;;;;;5067250;28;20047;-84
2022/05/28 01:55:20;;;;;;;8.30;1.63;;;11.40;99.90;;;;;;5084987;28;20048;-85
2022/05/28 01:57:46;;;;;;;13.15;1.00;;;10.20;99.90;;;;;;5085597;28;20040;-84
2022/05/28 02:00:12;;;;;;;9.65;1.15;;;11.10;99.90;;;;;;5083952;28;20605;-85
2022/05/28 02:02:38;;;;;;;8.32;1.35;;;10.20;99.90;;;;;;5083412;28;20044;-84
2022/05/28 02:05:05;;;;;;;11.98;1.35;;;11.40;99.90;;;;;;5050898;28;20096;-85
2022/05/28 02:07:30;;;;;;;7.63;1.23;;;10.10;99.90;;;;;;5048817;28;20047;-85
2022/05/28 02:10:08;;;;;;;14.25;1.50;;;11.40;99.90;;;;;;5085254;28;20396;-85
2022/05/28 02:12:47;;;;;;;11.18;1.30;;;10.10;99.90;;;;;;5066726;28;20075;-85
2022/05/28 02:15:51;;;;;;;11.07;1.83;;;10.00;99.90;;;;;;5068568;28;20055;-85
2022/05/28 02:18:25;;;;;;;14.32;1.98;;;10.00;99.90;;;;;;5074015;28;20057;-86
2022/05/28 02:21:05;;;;;;;12.77;1.73;;;9.90;99.90;;;;;;5086588;28;20094;-85
2022/05/28 02:23:37;;;;;;;15.73;1.45;;;9.90;99.90;;;;;;5086229;28;20123;-85
2022/05/28 02:26:14;;;;;;;6.50;1.30;;;10.60;99.90;;;;;;5087105;28;20048;-85
2022/05/28 02:28:41;;;;;;;5.15;1.25;;;10.30;99.90;;;;;;5092265;28;20036;-85
2022/05/28 02:31:19;;;;;;;10.25;1.77;;;9.90;99.90;;;;;;5080956;28;20063;-85
2022/05/28 02:33:46;;;;;;;9.35;1.05;;;10.00;99.90;;;;;;5092290;28;20072;-85
2022/05/28 02:36:13;;;;;;;6.53;1.15;;;10.80;99.90;;;;;;5083869;28;20399;-85
2022/05/28 02:38:39;;;;;;;9.25;1.23;;;10.00;99.90;;;;;;5066928;28;20051;-85
2022/05/28 02:41:05;;;;;;;12.52;1.92;;;11.20;99.90;;;;;;5067020;28;20044;-85
2022/05/28 02:43:31;;;;;;;11.25;1.25;;;10.20;99.90;;;;;;5084184;28;20177;-85
2022/05/28 02:45:58;;;;;;;7.60;1.40;;;11.10;99.90;;;;;;5082337;28;20067;-84
2022/05/28 02:48:24;;;;;;;5.07;1.17;;;10.30;99.90;;;;;;5083592;28;20039;-84
2022/05/28 02:50:50;;;;;;;12.07;1.45;;;10.30;99.90;;;;;;5083200;28;20040;-84
2022/05/28 02:53:16;;;;;;;14.88;1.90;;;11.50;99.90;;;;;;5084811;28;20539;-83
2022/05/28 02:55:42;;;;;;;7.75;1.20;;;10.80;99.90;;;;;;5066731;28;20036;-85
2022/05/28 02:58:08;;;;;;;12.30;1.30;;;10.20;99.90;;;;;;5065667;28;20390;-84
2022/05/28 03:00:33;;;;;;;6.93;1.23;;;10.20;99.90;;;;;;5083630;28;20085;-85
2022/05/28 03:02:59;;;;;;;9.50;1.92;;;10.10;99.90;;;;;;5082260;28;20427;-84
2022/05/28 03:05:26;;;;;;;14.73;2.20;;;10.70;99.90;;;;;;5082925;28;20044;-84
2022/05/28 03:07:52;;;;;;;9.88;2.03;;;10.00;99.90;;;;;;5083014;28;20052;-85
2022/05/28 03:10:18;;;;;;;19.95;2.00;;;10.60;99.90;;;;;;5066507;28;20044;-84
2022/05/28 03:12:44;;;;;;;10.02;1.17;;;10.00;99.90;;;;;;5082605;28;20079;-85
2022/05/28 03:15:10;;;;;;;11.77;1.67;;;10.00;99.90;;;;;;5082511;28;20040;-84
2022/05/28 03:17:36;;;;;;;15.75;1.73;;;10.00;99.90;;;;;;5050919;28;20048;-85
2022/05/28 03:20:04;;;;;;;13.57;1.75;;;10.20;99.90;;;;;;5086405;28;20044;-86
2022/05/28 03:22:30;;;;;;;7.95;1.40;;;10.00;99.90;;;;;;5086963;28;20052;-85
2022/05/28 03:24:56;;;;;;;10.57;1.35;;;9.90;99.90;;;;;;5086439;28;20051;-85
2022/05/28 03:27:22;;;;;;;6.53;1.35;;;11.20;99.90;;;;;;5086681;28;20567;-85
2022/05/28 03:29:48;;;;;;;17.88;1.85;;;10.90;99.90;;;;;;5087001;28;20389;-83
2022/05/28 03:32:14;;;;;;;11.52;1.95;;;9.90;99.90;;;;;;5086776;28;20051;-84
2022/05/28 03:34:39;;;;;;;16.58;1.60;;;9.90;99.90;;;;;;5087130;28;20113;-84
2022/05/28 03:37:05;;;;;;;8.57;1.27;;;10.90;99.90;;;;;;5069574;28;20092;-84
2022/05/28 03:39:31;;;;;;;8.88;1.70;;;10.60;99.90;;;;;;5086695;28;20083;-84
2022/05/28 03:41:56;;;;;;;6.93;1.13;;;10.60;99.90;;;;;;5086208;28;20128;-85
2022/05/28 03:44:22;;;;;;;4.88;1.10;;;9.90;99.90;;;;;;5087624;28;20766;-85
2022/05/28 03:46:48;;;;;;;7.78;1.38;;;10.20;99.90;;;;;;5086178;28;20127;-83
2022/05/28 03:49:25;;;;;;;15.07;2.33;;;10.80;99.90;;;;;;5069753;28;20070;-84
2022/05/28 03:51:51;;;;;;;14.57;1.83;;;9.90;99.90;;;;;;5069795;28;20044;-84
2022/05/28 03:54:17;;;;;;;9.45;1.77;;;10.40;99.90;;;;;;5093315;28;20044;-84
2022/05/28 03:56:44;;;;;;;13.73;1.65;;;9.90;99.90;;;;;;5093200;28;20044;-84
2022/05/28 03:59:10;;;;;;;7.45;1.40;;;11.10;99.90;;;;;;5074671;28;20468;-85
2022/05/28 04:01:36;;;;;;;9.68;1.70;;;9.90;99.90;;;;;;5070709;28;20044;-87
2022/05/28 04:04:03;;;;;;;10.30;2.03;;;10.00;99.90;;;;;;5085698;28;20139;-84
2022/05/28 04:06:29;;;;;;;6.40;1.00;;;9.90;99.90;;;;;;5068932;28;20074;-84
2022/05/28 04:08:54;;;;;;;8.20;1.45;;;10.50;99.90;;;;;;5086246;28;20492;-85
2022/05/28 04:11:20;;;;;;;7.90;1.20;;;10.00;99.90;;;;;;5068850;28;20040;-84
2022/05/28 04:13:46;;;;;;;23.63;1.95;;;10.00;99.90;;;;;;5086199;28;20039;-84
2022/05/28 04:16:13;;;;;;;11.70;1.25;;;11.20;99.90;;;;;;5068717;28;20521;-84
2022/05/28 04:18:40;;;;;;;7.38;1.63;;;11.30;99.90;;;;;;5086065;28;20076;-86
2022/05/28 04:21:06;;;;;;;10.82;1.55;;;11.50;99.90;;;;;;5085342;28;20036;-85
2022/05/28 04:23:32;;;;;;;5.28;1.30;;;10.30;99.90;;;;;;5085438;28;20131;-84
2022/05/28 04:25:58;;;;;;;15.07;1.90;;;10.40;99.90;;;;;;5087089;28;20135;-85
2022/05/28 04:28:24;;;;;;;7.68;1.83;;;10.70;99.90;;;;;;5085009;28;20044;-84
2022/05/28 04:30:49;;;;;;;12.35;2.47;;;10.50;99.90;;;;;;5051507;28;20040;-84
2022/05/28 04:33:15;;;;;;;12.75;2.17;;;10.60;99.90;;;;;;5051152;28;20040;-85
2022/05/28 04:35:41;;;;;;;8.73;1.38;;;10.60;99.90;;;;;;5085975;28;20085;-84
2022/05/28 04:38:08;;;;;;;10.75;1.63;;;11.80;99.90;;;;;;5051460;28;20063;-85
2022/05/28 04:40:34;;;;;;;7.93;1.48;;;10.70;99.90;;;;;;5068952;28;20036;-85
2022/05/28 04:42:59;;;;;;;9.10;1.73;;;11.50;99.90;;;;;;5088828;28;20040;-86
2022/05/28 04:45:25;;;;;;;13.60;3.00;;;11.00;99.90;;;;;;5073739;28;20105;-84
2022/05/28 04:47:51;;;;;;;10.15;1.20;;;11.10;99.90;;;;;;5036734;28;20028;-84
2022/05/28 04:50:16;;;;;;;9.75;1.55;;;12.50;99.90;;;;;;5086318;28;20123;-84
2022/05/28 04:52:42;;;;;;;9.20;1.50;;;12.50;99.90;;;;;;5068070;28;20056;-85
2022/05/28 04:55:10;;;;;;;9.23;1.55;;;11.20;99.90;;;;;;5067943;28;20126;-85
2022/05/28 04:57:35;;;;;;;13.55;1.50;;;12.30;99.90;;;;;;5084894;28;20048;-85
2022/05/28 05:00:02;;;;;;;9.43;1.65;;;11.70;99.90;;;;;;5051435;28;20063;-84
2022/05/28 05:02:28;;;;;;;8.55;1.30;;;11.20;99.90;;;;;;5084821;28;20569;-85
2022/05/28 05:04:57;;;;;;;11.18;1.45;;;12.00;99.90;;;;;;5068055;28;20056;-84
2022/05/28 05:07:24;;;;;;;5.18;1.45;;;11.30;99.90;;;;;;5067778;28;20052;-85
2022/05/28 05:09:50;;;;;;;13.27;1.85;;;12.50;99.90;;;;;;5085319;28;20058;-85
2022/05/28 05:12:16;;;;;;;14.82;1.60;;;11.40;99.90;;;;;;5084089;28;20040;-85
2022/05/28 05:14:42;;;;;;;10.80;2.20;;;11.50;99.90;;;;;;5084751;28;20051;-85
2022/05/28 05:17:07;;;;;;;12.15;1.50;;;12.70;99.90;;;;;;5067569;28;20036;-85
2022/05/28 05:19:33;;;;;;;11.40;1.80;;;12.90;99.90;;;;;;5067666;28;20046;-85
2022/05/28 05:21:59;;;;;;;8.15;1.35;;;13.00;99.90;;;;;;5085325;28;20174;-85
2022/05/28 05:24:25;;;;;;;8.50;1.27;;;12.20;99.90;;;;;;5069346;28;20337;-84
2022/05/28 05:26:51;;;;;;;11.48;1.30;;;13.50;99.90;;;;;;5089547;28;20048;-85
2022/05/28 05:29:16;;;;;;;6.95;1.60;;;12.40;99.90;;;;;;5085502;28;20468;-86
2022/05/28 05:31:42;;;;;;;11.35;1.58;;;12.90;99.90;;;;;;5084833;28;20428;-85
2022/05/28 05:34:08;;;;;;;12.55;1.85;;;13.30;99.90;;;;;;5084094;28;20047;-85
2022/05/28 05:36:34;;;;;;;11.88;1.83;;;13.80;99.90;;;;;;5084539;28;20044;-85
2022/05/28 05:39:00;;;;;;;10.45;1.70;;;12.70;99.90;;;;;;5084385;28;20557;-85
2022/05/28 05:41:25;;;;;;;8.30;1.52;;;13.40;99.90;;;;;;5083556;28;20044;-86
2022/05/28 05:43:51;;;;;;;9.68;1.85;;;12.70;99.90;;;;;;5067356;28;20488;-86
2022/05/28 05:46:17;;;;;;;8.18;1.48;;;12.90;99.90;;;;;;5066960;28;20093;-86
2022/05/28 05:48:42;;;;;;;17.42;1.95;;;12.50;99.90;;;;;;5084074;28;20531;-86
2022/05/28 05:51:11;;;;;;;7.22;1.83;;;12.60;99.90;;;;;;5083559;28;20131;-85
2022/05/28 05:53:37;;;;;;;11.35;1.80;;;12.50;99.90;;;;;;5084456;28;20048;-85
2022/05/28 05:56:03;;;;;;;7.97;1.50;;;12.50;99.90;;;;;;5067574;28;20032;-86
2022/05/28 05:58:29;;;;;;;7.53;1.50;;;12.50;99.90;;;;;;5083548;28;20117;-85
2022/05/28 06:00:55;;;;;;;10.57;2.10;;;12.40;99.90;;;;;;5084173;28;20523;-85
2022/05/28 06:03:21;;;;;;;11.57;2.05;;;12.50;99.90;;;;;;5083327;28;20055;-85
2022/05/28 06:05:47;;;;;;;9.55;1.70;;;13.20;99.90;;;;;;5083815;28;20555;-86
2022/05/28 06:08:15;;;;;;;9.48;1.70;;;12.50;99.90;;;;;;5066208;28;20062;-85
2022/05/28 06:10:43;;;;;;;10.25;1.88;;;12.50;99.90;;;;;;5084039;28;20125;-86
2022/05/28 06:13:09;;;;;;;13.07;2.15;;;12.90;99.90;;;;;;5083851;28;20047;-86
2022/05/28 06:15:35;;;;;;;11.43;1.95;;;13.30;99.90;;;;;;5084705;28;20079;-86
2022/05/28 06:18:00;;;;;;;9.57;1.52;;;12.70;99.90;;;;;;5083825;28;20135;-86
2022/05/28 06:20:26;;;;;;;7.60;1.20;;;12.80;99.90;;;;;;5082696;28;20063;-87
2022/05/28 06:22:52;;;;;;;7.03;1.40;;;12.80;99.90;;;;;;5050779;28;20083;-86
2022/05/28 06:25:18;;;;;;;8.30;1.15;;;12.60;99.90;;;;;;5065929;28;20097;-86
2022/05/28 06:27:46;;;;;;;7.38;1.33;;;12.50;99.90;;;;;;5084252;28;20052;-85
2022/05/28 06:30:12;;;;;;;13.52;1.63;;;13.00;99.90;;;;;;5083291;28;20123;-85
2022/05/28 06:32:38;;;;;;;12.32;1.40;;;12.30;99.90;;;;;;5084618;28;20036;-86
2022/05/28 06:35:04;;;;;;;7.80;1.45;;;12.40;99.90;;;;;;5083730;28;20044;-86
2022/05/28 06:37:29;;;;;;;10.43;1.90;;;12.50;99.90;;;;;;5066096;28;20044;-86
2022/05/28 06:39:55;;;;;;;8.38;1.25;;;12.70;99.90;;;;;;5067131;28;20036;-86
2022/05/28 06:42:21;;;;;;;7.63;1.20;;;13.80;99.90;;;;;;5082652;28;20078;-86
2022/05/28 06:44:46;;;;;;;9.27;1.75;;;13.80;99.90;;;;;;5083760;28;20040;-85
2022/05/28 06:47:12;;;;;;;9.80;1.30;;;14.00;99.90;;;;;;5082809;28;20505;-86
2022/05/28 06:49:38;;;;;;;14.18;2.00;;;13.60;99.90;;;;;;5066579;28;20040;-85
2022/05/28 06:52:04;;;;;;;10.05;1.20;;;14.70;99.90;;;;;;5066778;28;20492;-85
2022/05/28 06:54:30;;;;;;;11.10;1.83;;;13.80;99.90;;;;;;5087231;28;20051;-86
2022/05/28 06:56:55;;;;;;;5.97;1.90;;;14.70;99.90;;;;;;5073666;28;20143;-86
2022/05/28 06:59:21;;;;;;;11.88;2.45;;;13.90;99.90;;;;;;5073891;28;20119;-85
2022/05/28 07:01:47;;;;;;;10.85;1.63;;;14.30;99.90;;;;;;5090419;28;20036;-85
2022/05/28 07:04:13;;;;;;;9.20;1.33;;;13.90;99.90;;;;;;5088918;28;20058;-86
2022/05/28 07:06:39;;;;;;;11.38;2.33;;;13.90;99.90;;;;;;5082310;28;20052;-86
2022/05/28 07:09:07;;;;;;;11.48;1.83;;;13.90;99.90;;;;;;5105756;28;20100;-85
2022/05/28 07:11:33;;;;;;;9.45;1.92;;;13.70;99.90;;;;;;5087268;28;20051;-86
2022/05/28 07:13:59;;;;;;;6.00;1.05;;;13.80;99.90;;;;;;5094456;28;20048;-86
2022/05/28 07:16:26;;;;;;;10.32;1.58;;;13.90;99.90;;;;;;5075478;28;20089;-86
2022/05/28 07:18:52;;;;;;;14.57;2.20;;;14.00;99.90;;;;;;5058728;28;20040;-87
2022/05/28 07:21:18;;;;;;;7.82;1.77;;;14.10;99.90;;;;;;5074712;28;20050;-86
2022/05/28 07:23:43;;;;;;;12.52;1.80;;;14.20;99.90;;;;;;5091695;28;20534;-86
2022/05/28 07:26:11;;;;;;;11.70;1.85;;;14.10;99.90;;;;;;5091794;28;20040;-87
2022/05/28 07:28:39;;;;;;;11.05;1.80;;;14.10;99.90;;;;;;5073597;28;20040;-85
2022/05/28 07:31:26;;;;;;;7.93;1.10;;;14.00;99.90;;;;;;5075102;28;20044;-86
2022/05/28 07:33:51;;;;;;;9.30;1.40;;;15.00;99.90;;;;;;5090679;28;20067;-86
2022/05/28 07:36:21;;;;;;;13.52;1.50;;;13.70;99.90;;;;;;5074764;28;20378;-86
2022/05/28 07:38:48;;;;;;;14.75;2.15;;;13.70;99.90;;;;;;5091566;28;20040;-88
2022/05/28 07:41:17;;;;;;;10.40;1.58;;;14.50;99.90;;;;;;5090812;28;20056;-86
2022/05/28 07:43:44;;;;;;;13.82;1.85;;;14.10;99.90;;;;;;5093083;28;20436;-87
2022/05/28 07:46:14;;;;;;;13.20;2.05;;;14.30;99.90;;;;;;5090712;28;20036;-86
2022/05/28 07:48:40;;;;;;;13.07;1.58;;;14.70;99.90;;;;;;5091283;28;20679;-85
2022/05/28 07:51:06;;;;;;;12.07;1.63;;;14.20;99.90;;;;;;5089526;28;20055;-86
2022/05/28 07:53:31;;;;;;;12.82;1.98;;;14.50;99.90;;;;;;5090579;28;20036;-85
2022/05/28 07:56:01;;;;;;;7.03;1.73;;;13.90;99.90;;;;;;5091413;28;20496;-86
2022/05/28 07:58:27;;;;;;;8.65;2.10;;;14.10;99.90;;;;;;5091057;28;20052;-86
2022/05/28 08:00:52;;;;;;;7.97;1.38;;;14.30;99.90;;;;;;5074046;28;20046;-87
2022/05/28 08:03:19;;;;;;;10.27;2.03;;;15.20;99.90;;;;;;5055637;28;20181;-86
2022/05/28 08:05:48;;;;;;;10.60;1.40;;;14.80;99.90;;;;;;5072319;28;20052;-86
2022/05/28 08:08:15;;;;;;;13.75;2.92;;;15.40;99.90;;;;;;5089949;28;20048;-87
2022/05/28 08:10:41;;;;;;;18.92;2.08;;;14.60;99.90;;;;;;5073872;28;20477;-88
2022/05/28 08:13:12;;;;;;;12.50;1.50;;;14.60;99.90;;;;;;5057199;28;20059;-88
2022/05/28 08:15:41;;;;;;;12.70;1.90;;;14.60;99.90;;;;;;5073322;28;20036;-87
2022/05/28 08:18:07;;;;;;;7.53;1.08;;;14.70;99.90;;;;;;5074104;28;20131;-88
2022/05/28 08:23:19;;;;;;;13.40;1.55;;;14.80;99.90;;;;;;5091807;28;20051;-87
2022/05/28 08:25:46;;;;;;;11.32;1.60;;;14.70;99.90;;;;;;5094529;28;20385;-87
2022/05/28 08:28:13;;;;;;;11.25;1.75;;;14.70;99.90;;;;;;5095348;28;20045;-86
2022/05/28 08:30:39;;;;;;;5.53;1.52;;;14.90;99.90;;;;;;5078436;28;20397;-87
2022/05/28 08:33:06;;;;;;;9.25;1.38;;;15.30;99.90;;;;;;5075265;28;20052;-87
2022/05/28 08:35:32;;;;;;;13.60;2.25;;;15.70;99.90;;;;;;5092093;28;20135;-87
2022/05/28 08:38:22;;;;;;;7.07;1.35;;;15.60;99.90;;;;;;5090860;28;20040;-87
2022/05/28 08:41:12;;;;;;;9.38;1.48;;;16.30;99.90;;;;;;5073279;28;20051;-87
2022/05/28 08:43:44;;;;;;;6.57;1.20;;;15.20;99.90;;;;;;5090950;28;20382;-87
2022/05/28 08:46:14;;;;;;;6.18;1.25;;;15.30;99.90;;;;;;5073108;28;20453;-87
2022/05/28 08:48:55;;;;;;;10.57;1.42;;;15.40;99.90;;;;;;5091280;28;20527;-87
2022/05/28 08:51:43;;;;;;;11.90;1.55;;;15.70;99.90;;;;;;5089475;28;20283;-87
2022/05/28 08:54:14;;;;;;;9.60;1.90;;;15.80;99.50;;;;;;5088442;28;20451;-88
2022/05/28 08:56:41;;;;;;;11.95;1.67;;;15.60;99.90;;;;;;5086670;28;20070;-87
2022/05/28 08:59:25;;;;;;;12.60;1.52;;;15.60;99.90;;;;;;5084483;28;20052;-88
2022/05/28 09:01:52;;;;;;;6.80;1.67;;;15.00;99.90;;;;;;5068688;28;20488;-86
2022/05/28 09:04:38;;;;;;;5.78;1.50;;;14.90;99.90;;;;;;5067322;28;20044;-89
2022/05/28 09:07:10;;;;;;;6.15;1.55;;;14.80;99.90;;;;;;5084262;28;20071;-88
2022/05/28 09:09:42;;;;;;;9.45;1.77;;;14.50;99.90;;;;;;5085467;28;20036;-87
2022/05/28 09:12:15;;;;;;;11.88;1.67;;;14.40;99.90;;;;;;5084049;28;20047;-87
2022/05/28 09:14:41;;;;;;;6.53;1.60;;;14.60;99.90;;;;;;5068254;28;20726;-87
2022/05/28 09:17:17;;;;;;;9.80;1.35;;;14.80;99.90;;;;;;5066730;28;20368;-87
2022/05/28 09:19:48;;;;;;;13.52;2.00;;;14.10;99.90;;;;;;5067420;28;20032;-87
2022/05/28 09:22:15;;;;;;;18.42;2.25;;;14.20;99.90;;;;;;5086111;28;20420;-87
2022/05/28 09:24:42;;;;;;;9.43;1.83;;;14.40;99.90;;;;;;5067194;28;20130;-87
2022/05/28 09:27:38;;;;;;;7.47;1.60;;;13.80;99.90;;;;;;5068204;28;20036;-87
2022/05/28 09:30:10;;;;;;;8.23;1.33;;;14.40;99.90;;;;;;5084305;28;20095;-87
2022/05/28 09:33:02;;;;;;;11.85;2.05;;;14.70;99.90;;;;;;5084779;28;20059;-87
2022/05/28 09:35:52;;;;;;;12.90;1.10;;;14.80;99.90;;;;;;5096658;28;20048;-87
2022/05/28 09:38:30;;;;;;;10.75;1.58;;;14.70;99.90;;;;;;5107176;28;20048;-88
2022/05/28 09:41:17;;;;;;;15.13;1.77;;;14.90;99.90;;;;;;5099753;28;20051;-87
2022/05/28 09:44:04;;;;;;;10.48;1.42;;;15.10;99.90;;;;;;5068695;28;20131;-87
2022/05/28 09:46:39;;;;;;;9.65;1.35;;;15.20;99.90;;;;;;5067228;28;20496;-88
2022/05/28 09:49:15;;;;;;;17.98;1.75;;;15.00;99.90;;;;;;5086360;28;20044;-85
2022/05/28 09:51:58;;;;;;;10.90;1.50;;;14.90;99.90;;;;;;5084136;28;20048;-86
2022/05/28 09:54:27;;;;;;;;;;;15.00;99.80;;;;;;5067528;28;20394;-86
2022/05/28 09:56:56;;;;;;;9.98;1.20;;;15.30;97.40;;;;;;5086446;28;20494;-87
2022/05/28 09:59:46;;;;;;;16.10;1.42;;;15.60;99.90;;;;;;5090151;28;20561;-87
2022/05/28 10:02:29;;;;;;;9.05;1.58;;;15.80;98.80;;;;;;5107142;28;20110;-86
2022/05/28 10:05:16;;;;;;;8.10;0.80;;;15.80;97.50;;;;;;5089166;28;20071;-86
2022/05/28 10:07:51;;;;;;;6.25;1.15;;;15.80;95.90;;;;;;5066956;28;20048;-87
2022/05/28 10:10:22;;;;;;;7.07;1.30;;;15.70;97.70;;;;;;5067617;28;20078;-87
2022/05/28 10:12:49;;;;;;;14.20;3.13;;;15.60;98.80;;;;;;5083573;28;21089;-86
2022/05/28 10:15:20;;;;;;;8.30;1.55;;;15.60;98.90;;;;;;5083976;28;20040;-87
2022/05/28 10:18:18;;;;;;;9.48;1.30;;;15.50;97.80;;;;;;5067261;28;20085;-87
2022/05/28 10:20:55;;;;;;;6.65;1.23;;;15.40;95.80;;;;;;5082213;28;20125;-87
2022/05/28 10:23:21;;;;;;;15.50;1.55;;;15.30;97.90;;;;;;5069108;28;20138;-86
2022/05/28 10:25:50;;;;;;;5.88;1.27;;;15.20;97.60;;;;;;5082780;28;20093;-87
2022/05/28 10:28:47;;;;;;;7.72;1.10;;;15.10;96.70;;;;;;5049213;28;20512;-87
2022/05/28 10:31:22;;;;;;;6.22;1.27;;;15.30;93.90;;;;;;5084235;28;20132;-86
2022/05/28 10:33:48;;;;;;;4.30;0.70;;;15.60;94.10;;;;;;5082203;28;20439;-87
2022/05/28 10:36:17;;;;;;;4.97;1.65;;;15.80;93.80;;;;;;5034004;28;20044;-87
2022/05/28 10:38:43;;;;;;;5.25;0.55;;;16.10;92.10;;;;;;5082766;28;20042;-88
2022/05/28 10:41:26;;;;;;;4.60;1.02;;;16.30;91.40;;;;;;5084511;28;20493;-87
2022/05/28 10:43:52;;;;;;;8.60;1.10;;;16.40;90.40;;;;;;5066707;28;20093;-87
2022/05/28 10:46:35;;;;;;;4.80;0.90;;;16.30;91.50;;;;;;5065911;28;20423;-85
2022/05/28 10:49:01;;;;;;;7.28;1.25;;;16.30;89.80;;;;;;5067646;28;21036;-85
2022/05/28 10:51:41;;;;;;;3.22;0.90;;;16.30;91.10;;;;;;5083911;28;20093;-86
2022/05/28 10:54:32;;;;;;;5.97;1.15;;;16.10;88.70;;;;;;5065849;28;20048;-87
2022/05/28 10:57:22;;;;;;;5.75;0.80;;;15.90;90.90;;;;;;5066484;28;20048;-88
2022/05/28 11:00:06;;;;;;;7.18;1.20;;;15.80;88.90;;;;;;5082259;28;20139;-87
2022/05/28 11:02:56;;;;;;;4.47;0.63;;;15.80;86.10;;;;;;5083012;28;20051;-87
2022/05/28 11:05:56;;;;;;;8.30;1.20;;;15.80;84.20;;;;;;5083572;28;20471;-87
2022/05/28 11:08:40;;;;;;;6.13;1.10;;;15.60;85.70;;;;;;5081973;28;20501;-87
2022/05/28 11:11:22;;;;;;;6.38;0.98;;;14.40;86.00;;;;;;5082826;28;20048;-87
2022/05/28 11:13:56;;;;;;;7.15;0.95;;;15.30;91.60;;;;;;5083212;28;20126;-87
2022/05/28 11:16:47;;;;;;;8.20;1.10;;;15.60;93.40;;;;;;5065236;28;20093;-87
2022/05/28 11:19:18;;;;;;;6.78;0.70;;;16.20;93.70;;;;;;5068267;28;20084;-87
2022/05/28 11:22:14;;;;;;;6.00;0.73;;;16.60;91.40;;;;;;5085271;28;20051;-87
2022/05/28 11:24:58;;;;;;;7.03;1.08;;;16.70;85.80;;;;;;5083274;28;20142;-86
2022/05/28 11:27:36;;;;;;;6.35;0.75;;;16.90;89.30;;;;;;5084713;28;20060;-86
2022/05/28 11:30:13;;;;;;;4.55;0.85;;;17.20;87.10;;;;;;5082466;28;20044;-86
2022/05/28 11:32:58;;;;;;;7.57;0.95;;;16.80;87.10;;;;;;5085201;28;20063;-87
2022/05/28 11:35:33;;;;;;;9.18;1.50;;;16.70;88.10;;;;;;5072105;28;20044;-86
2022/05/28 11:38:22;;;;;;;5.28;1.35;;;16.50;89.20;;;;;;5086494;28;20130;-87
2022/05/28 11:41:00;;;;;;;10.40;1.50;;;16.40;87.40;;;;;;5070817;28;20055;-87
2022/05/28 11:43:36;;;;;;;7.53;1.02;;;16.30;90.50;;;;;;5088284;28;20096;-86
2022/05/28 11:46:14;;;;;;;11.65;1.77;;;16.20;90.40;;;;;;5068703;28;20072;-86
2022/05/28 11:51:40;;;;;;;6.43;1.23;;;15.80;91.90;;;;;;5087379;28;20062;-86
2022/05/28 11:54:13;;;;;;;4.45;2.17;;;15.60;93.20;;;;;;5087832;28;20048;-86
2022/05/28 11:56:38;;;;;;;;;;;15.60;94.80;;;;;;5070084;28;20481;-86
2022/05/28 11:59:29;;;;;;;12.65;1.70;;;15.70;95.00;;;;;;5069099;28;19932;-85
2022/05/28 12:02:07;;;;;;;9.93;1.30;;;15.80;95.70;;;;;;5091605;28;20138;-86
2022/05/28 12:04:38;;;;;;;8.02;1.02;;;15.70;95.30;;;;;;5084532;28;20082;-86
2022/05/28 12:07:12;;;;;;;4.43;0.90;;;15.90;95.30;;;;;;5080651;28;20087;-87
2022/05/28 12:09:46;;;;;;;10.73;1.40;;;15.90;95.20;;;;;;5075688;28;20062;-86
2022/05/28 12:12:19;;;;;;;15.02;1.88;;;15.90;94.10;;;;;;5090339;28;20047;-86
2022/05/28 12:14:48;;;;;;;9.60;1.58;;;16.00;93.10;;;;;;5090032;28;20097;-86
2022/05/28 12:17:19;;;;;;;6.32;0.95;;;16.00;92.90;;;;;;5072175;28;20044;-87
2022/05/28 12:19:56;;;;;;;8.25;1.20;;;16.20;92.50;;;;;;5072365;28;20082;-87
2022/05/28 12:22:35;;;;;;;12.68;1.70;;;15.80;91.40;;;;;;5072746;28;20065;-87
2022/05/28 12:25:13;;;;;;;4.82;1.08;;;16.30;91.60;;;;;;5047114;28;20057;-86
2022/05/28 12:27:54;;;;;;;7.18;0.90;;;16.30;92.40;;;;;;5049560;28;20053;-87
2022/05/28 12:30:41;;;;;;;5.35;1.30;;;16.30;92.80;;;;;;5032260;28;20097;-87
2022/05/28 12:33:20;;;;;;;8.88;1.30;;;15.60;92.50;;;;;;5031035;28;20126;-86
2022/05/28 12:36:05;;;;;;;7.10;1.60;;;15.80;93.60;;;;;;5032328;28;20044;-87
2022/05/28 12:38:43;;;;;;;7.47;1.30;;;15.60;94.20;;;;;;5047589;28;20053;-86
2022/05/28 12:41:16;;;;;;;10.65;1.50;;;15.80;95.20;;;;;;5032407;28;20049;-86
2022/05/28 12:43:50;;;;;;;10.00;1.60;;;16.10;94.40;;;;;;5031869;28;20033;-86
2022/05/28 12:46:20;;;;;;;4.13;1.05;;;16.10;93.30;;;;;;5030906;28;20053;-86
2022/05/28 12:48:50;;;;;;;8.98;1.50;;;16.20;93.40;;;;;;5031814;28;20134;-86
2022/05/28 12:51:36;;;;;;;7.50;1.40;;;15.20;93.30;;;;;;5046031;28;20044;-86
2022/05/28 12:54:04;;;;;;;13.18;1.60;;;15.80;93.20;;;;;;5031523;28;20044;-86
2022/05/28 12:56:32;;;;;;;9.35;1.35;;;15.60;94.30;;;;;;5070099;28;20136;-86
2022/05/28 12:59:12;;;;;;;6.22;1.70;;;15.60;94.20;;;;;;5088125;28;20496;-86
2022/05/28 13:01:59;;;;;;;11.05;1.10;;;15.80;94.30;;;;;;5071644;28;20497;-86
2022/05/28 13:04:30;;;;;;;5.45;1.08;;;16.20;93.80;;;;;;5070013;28;20103;-87
2022/05/28 13:06:59;;;;;;;6.22;1.00;;;16.40;91.90;;;;;;5072046;28;20052;-86
2022/05/28 13:09:28;;;;;;;6.40;1.08;;;16.40;91.10;;;;;;5091292;28;20036;-87